Time;durP1;ratioP1;P1;durP2;ratioP2;P2;SDS_P1;SDS_P2;PMS_P1;PMS_P2;Temp;Humidity;BMP_temperature;BMP_pressure;BME280_temperature;BME280_humidity;BME280_pressure;Samples;Min_cycle;Max_cycle;Signal;HPM_P1;HPM_P2
2021/06/17 00:02:50;;;;;;;14.75;8.77;;;;;;;;;;6999658;28;20052;-83
2021/06/17 00:06:10;;;;;;;12.95;8.13;;;;;;;;;;7004648;28;20055;-83
2021/06/17 00:09:30;;;;;;;12.75;8.50;;;;;;;;;;6999886;28;20189;-83
2021/06/17 00:12:52;;;;;;;18.50;7.93;;;;;;;;;;6999574;28;20444;-83
2021/06/17 00:16:13;;;;;;;13.10;9.05;;;;;;;;;;7013351;28;20048;-83
2021/06/17 00:19:33;;;;;;;14.32;8.27;;;;;;;;;;7006750;28;20041;-83
2021/06/17 00:22:54;;;;;;;14.88;8.85;;;;;;;;;;6999358;28;20080;-83
2021/06/17 00:26:15;;;;;;;15.13;8.02;;;;;;;;;;7012624;28;20437;-83
2021/06/17 00:29:37;;;;;;;14.70;7.93;;;;;;;;;;6999012;28;20044;-83
2021/06/17 00:32:58;;;;;;;10.05;8.02;;;;;;;;;;6998642;28;20060;-83
2021/06/17 00:36:18;;;;;;;17.25;8.35;;;;;;;;;;6999922;28;20048;-83
2021/06/17 00:39:40;;;;;;;16.65;8.10;;;;;;;;;;6999039;28;20445;-83
2021/06/17 00:43:01;;;;;;;11.50;7.63;;;;;;;;;;6998969;28;20044;-84
2021/06/17 00:46:22;;;;;;;11.80;7.03;;;;;;;;;;7001206;28;20091;-84
2021/06/17 00:49:42;;;;;;;12.68;8.20;;;;;;;;;;6998804;28;20041;-83
2021/06/17 00:53:07;;;;;;;10.23;8.20;;;;;;;;;;6998856;28;20132;-84
2021/06/17 00:56:27;;;;;;;11.23;7.78;;;;;;;;;;7000732;28;20131;-84
2021/06/17 00:59:48;;;;;;;11.15;7.88;;;;;;;;;;6998869;28;20048;-84
2021/06/17 01:03:08;;;;;;;14.10;8.45;;;;;;;;;;6998827;28;20139;-83
2021/06/17 01:06:29;;;;;;;9.40;7.88;;;;;;;;;;7002865;28;20440;-83
2021/06/17 01:10:02;;;;;;;10.02;7.82;;;;;;;;;;6980268;28;20047;-82
2021/06/17 01:13:44;;;;;;;11.32;7.40;;;;;;;;;;6997277;28;20051;-83
2021/06/17 01:17:11;;;;;;;9.77;7.70;;;;;;;;;;7021934;28;20473;-84
2021/06/17 01:20:42;;;;;;;12.52;7.82;;;;;;;;;;6998307;28;20041;-83
2021/06/17 01:24:06;;;;;;;13.23;8.20;;;;;;;;;;6996501;28;20539;-83
2021/06/17 01:28:13;;;;;;;13.48;8.13;;;;;;;;;;7038736;22;20060;-83
2021/06/17 01:31:35;;;;;;;10.30;6.90;;;;;;;;;;6939077;28;20052;-83
2021/06/17 01:34:56;;;;;;;10.35;7.95;;;;;;;;;;6937636;28;20054;-84
2021/06/17 01:38:22;;;;;;;12.90;7.90;;;;;;;;;;6935557;28;20152;-86
2021/06/17 01:41:45;;;;;;;9.82;7.93;;;;;;;;;;6937682;28;20570;-86
2021/06/17 01:45:07;;;;;;;10.45;7.57;;;;;;;;;;6920323;28;20037;-87
2021/06/17 01:48:27;;;;;;;15.45;8.20;;;;;;;;;;6936657;28;20064;-87
2021/06/17 01:51:50;;;;;;;11.65;7.88;;;;;;;;;;6916854;28;20085;-84
2021/06/17 01:55:11;;;;;;;8.73;7.35;;;;;;;;;;6928945;28;20045;-84
2021/06/17 01:58:32;;;;;;;12.07;7.03;;;;;;;;;;6913812;28;20056;-84
2021/06/17 02:01:58;;;;;;;13.38;7.40;;;;;;;;;;6933839;28;20045;-84
2021/06/17 02:05:22;;;;;;;15.40;7.82;;;;;;;;;;6982984;28;20485;-85
2021/06/17 02:08:50;;;;;;;19.10;9.40;;;;;;;;;;7052789;28;20100;-84
2021/06/17 02:12:11;;;;;;;11.45;8.85;;;;;;;;;;7034540;28;20063;-84
2021/06/17 02:15:33;;;;;;;13.32;8.43;;;;;;;;;;7052050;28;20055;-84
2021/06/17 02:18:56;;;;;;;13.43;9.68;;;;;;;;;;7017364;28;20043;-84
2021/06/17 02:22:17;;;;;;;11.85;8.82;;;;;;;;;;7040127;28;20566;-86
2021/06/17 02:25:39;;;;;;;14.98;8.48;;;;;;;;;;7010740;28;20059;-85
2021/06/17 02:29:01;;;;;;;16.02;8.57;;;;;;;;;;7003512;28;20043;-86
2021/06/17 02:32:23;;;;;;;9.38;8.10;;;;;;;;;;7006571;28;20044;-86
2021/06/17 02:35:45;;;;;;;9.65;7.13;;;;;;;;;;7019601;28;20052;-86
2021/06/17 02:39:07;;;;;;;11.95;8.57;;;;;;;;;;7006052;28;20155;-84
2021/06/17 02:42:28;;;;;;;10.35;7.55;;;;;;;;;;7020698;28;20052;-85
2021/06/17 02:45:52;;;;;;;10.73;7.60;;;;;;;;;;7020377;28;20190;-86
2021/06/17 02:49:12;;;;;;;9.07;7.03;;;;;;;;;;7018350;28;20044;-84
2021/06/17 02:52:33;;;;;;;11.85;8.27;;;;;;;;;;7038627;28;20128;-85
2021/06/17 02:55:54;;;;;;;15.52;8.68;;;;;;;;;;7035400;28;20447;-84
2021/06/17 03:00:02;;;;;;;11.07;8.25;;;;;;;;;;7019646;28;20083;-85
2021/06/17 03:03:44;;;;;;;15.10;8.27;;;;;;;;;;7016179;28;20071;-84
2021/06/17 03:07:07;;;;;;;13.98;7.97;;;;;;;;;;7005128;28;20382;-84
2021/06/17 03:10:28;;;;;;;11.68;7.47;;;;;;;;;;7023858;28;20055;-84
2021/06/17 03:13:50;;;;;;;12.60;8.27;;;;;;;;;;7023656;28;20055;-84
2021/06/17 03:17:12;;;;;;;12.40;7.93;;;;;;;;;;7023346;28;20044;-84
2021/06/17 03:20:34;;;;;;;9.55;7.80;;;;;;;;;;7004410;28;20040;-84
2021/06/17 03:23:56;;;;;;;10.23;7.15;;;;;;;;;;7026437;28;20108;-84
2021/06/17 03:27:17;;;;;;;16.35;7.50;;;;;;;;;;7016261;28;20436;-83
2021/06/17 03:30:38;;;;;;;9.18;7.28;;;;;;;;;;7004148;28;20490;-84
2021/06/17 03:34:00;;;;;;;12.48;7.43;;;;;;;;;;7005407;28;20048;-85
2021/06/17 03:37:22;;;;;;;12.43;7.38;;;;;;;;;;7005301;28;20469;-84
2021/06/17 03:40:43;;;;;;;7.70;6.60;;;;;;;;;;7002720;28;20489;-85
2021/06/17 03:44:04;;;;;;;9.93;6.53;;;;;;;;;;7024415;28;20482;-85
2021/06/17 03:47:25;;;;;;;13.50;6.82;;;;;;;;;;7018331;28;20142;-85
2021/06/17 03:50:46;;;;;;;8.38;6.45;;;;;;;;;;7004965;28;20044;-85
2021/06/17 03:54:08;;;;;;;12.77;7.05;;;;;;;;;;7018837;28;20055;-85
2021/06/17 03:57:29;;;;;;;10.55;6.68;;;;;;;;;;7004656;28;20063;-85
2021/06/17 04:00:50;;;;;;;19.08;7.50;;;;;;;;;;7005067;28;20044;-87
2021/06/17 04:04:10;;;;;;;13.10;6.55;;;;;;;;;;7003599;28;20053;-86
2021/06/17 04:07:32;;;;;;;13.85;6.40;;;;;;;;;;7025825;28;20138;-88
2021/06/17 04:10:55;;;;;;;7.47;6.43;;;;;;;;;;7009492;28;20044;-87
2021/06/17 04:14:17;;;;;;;12.95;6.32;;;;;;;;;;7009613;28;20093;-87
2021/06/17 04:17:40;;;;;;;11.35;7.30;;;;;;;;;;7021380;28;20043;-87
2021/06/17 04:21:01;;;;;;;10.48;6.25;;;;;;;;;;7022856;28;20081;-86
2021/06/17 04:24:24;;;;;;;11.45;6.40;;;;;;;;;;7018465;28;20063;-86
2021/06/17 04:27:45;;;;;;;12.02;6.88;;;;;;;;;;7033727;28;20044;-86
2021/06/17 04:31:06;;;;;;;10.63;6.13;;;;;;;;;;7009186;28;20036;-86
2021/06/17 04:34:26;;;;;;;11.23;7.05;;;;;;;;;;7009053;28;20074;-86
2021/06/17 04:37:47;;;;;;;26.42;7.75;;;;;;;;;;7008884;28;20056;-87
2021/06/17 04:41:07;;;;;;;11.32;7.00;;;;;;;;;;7041101;28;20378;-88
2021/06/17 04:44:28;;;;;;;10.73;7.30;;;;;;;;;;7027088;28;20409;-88
2021/06/17 04:47:49;;;;;;;15.77;8.10;;;;;;;;;;7008455;28;20500;-88
2021/06/17 04:51:12;;;;;;;15.85;7.55;;;;;;;;;;7026772;28;20051;-88
2021/06/17 04:54:33;;;;;;;13.20;8.13;;;;;;;;;;7026691;28;20040;-89
2021/06/17 04:57:54;;;;;;;9.93;6.45;;;;;;;;;;7026439;28;20137;-88
2021/06/17 05:01:17;;;;;;;19.85;7.05;;;;;;;;;;7026416;28;20434;-80
2021/06/17 05:04:38;;;;;;;19.95;6.90;;;;;;;;;;7008010;28;20051;-81
2021/06/17 05:11:38;;;;;;;10.70;5.50;;;;;;;;;;7026327;28;20052;-82
2021/06/17 05:14:58;;;;;;;15.35;6.35;;;;;;;;;;7026405;28;20040;-80
2021/06/17 05:18:20;;;;;;;21.85;5.93;;;;;;;;;;7042353;28;20048;-85
2021/06/17 05:21:42;;;;;;;9.77;5.50;;;;;;;;;;7033096;28;20489;-83
2021/06/17 05:25:05;;;;;;;11.82;5.57;;;;;;;;;;7026013;28;20043;-84
2021/06/17 05:28:27;;;;;;;15.65;5.55;;;;;;;;;;7040397;28;20044;-82
2021/06/17 05:31:48;;;;;;;8.95;5.15;;;;;;;;;;7025808;28;20493;-86
2021/06/17 05:35:09;;;;;;;13.48;6.00;;;;;;;;;;7041261;28;20135;-85
2021/06/17 05:38:32;;;;;;;10.10;5.10;;;;;;;;;;7005549;28;20056;-86
2021/06/17 05:41:53;;;;;;;8.52;4.90;;;;;;;;;;7006753;28;20062;-87
2021/06/17 05:45:13;;;;;;;12.02;5.13;;;;;;;;;;7025473;28;20059;-87
2021/06/17 05:48:35;;;;;;;9.90;4.70;;;;;;;;;;7037641;28;20051;-87
2021/06/17 05:51:56;;;;;;;8.40;4.78;;;;;;;;;;7026512;28;20137;-94
2021/06/17 05:55:16;;;;;;;5.28;4.30;;;;;;;;;;7010737;28;20048;-89
2021/06/17 05:58:37;;;;;;;9.55;5.05;;;;;;;;;;7025162;28;20056;-84
2021/06/17 06:01:57;;;;;;;10.02;4.82;;;;;;;;;;7025178;28;20134;-84
2021/06/17 06:05:18;;;;;;;6.68;4.60;;;;;;;;;;7036670;28;20035;-87
2021/06/17 06:08:39;;;;;;;5.90;4.30;;;;;;;;;;7045353;28;20127;-88
2021/06/17 06:11:59;;;;;;;9.13;5.07;;;;;;;;;;7024586;28;20044;-91
2021/06/17 06:15:20;;;;;;;8.05;4.30;;;;;;;;;;7025117;28;20470;-91
2021/06/17 06:18:40;;;;;;;7.22;4.75;;;;;;;;;;7024709;28;20059;-88
2021/06/17 06:22:05;;;;;;;6.03;4.43;;;;;;;;;;7024892;28;20059;-88
2021/06/17 06:25:25;;;;;;;10.40;4.40;;;;;;;;;;7038461;28;20130;-87
2021/06/17 06:28:46;;;;;;;8.80;5.10;;;;;;;;;;7019956;28;20046;-87
2021/06/17 06:32:08;;;;;;;8.95;4.60;;;;;;;;;;7038468;28;20168;-88
2021/06/17 06:35:29;;;;;;;7.60;3.95;;;;;;;;;;7024582;28;20048;-88
2021/06/17 06:38:49;;;;;;;6.78;4.35;;;;;;;;;;7023988;28;20050;-86
2021/06/17 06:42:09;;;;;;;7.25;4.30;;;;;;;;;;7024669;28;20050;-89
2021/06/17 06:45:30;;;;;;;6.35;4.00;;;;;;;;;;7038375;28;20044;-88
2021/06/17 06:48:51;;;;;;;7.50;4.30;;;;;;;;;;7006211;28;20497;-87
2021/06/17 06:52:11;;;;;;;5.80;4.00;;;;;;;;;;7024223;28;20056;-88
2021/06/17 06:55:32;;;;;;;5.55;4.00;;;;;;;;;;7050034;28;20066;-88
2021/06/17 06:58:53;;;;;;;6.43;3.88;;;;;;;;;;7037888;28;20057;-87
2021/06/17 07:02:14;;;;;;;5.93;4.03;;;;;;;;;;7026877;28;20044;-87
2021/06/17 07:05:34;;;;;;;4.13;3.70;;;;;;;;;;7024100;28;20460;-87
2021/06/17 07:08:54;;;;;;;5.43;3.92;;;;;;;;;;7023245;28;20112;-88
2021/06/17 07:12:15;;;;;;;7.28;4.35;;;;;;;;;;7023615;28;20053;-86
2021/06/17 07:15:35;;;;;;;7.72;3.83;;;;;;;;;;7023702;28;20048;-87
2021/06/17 07:18:56;;;;;;;4.85;3.47;;;;;;;;;;7023461;28;20176;-87
2021/06/17 07:22:16;;;;;;;20.17;3.92;;;;;;;;;;7023554;28;20449;-87
2021/06/17 07:25:37;;;;;;;4.93;3.60;;;;;;;;;;7037654;28;20131;-86
2021/06/17 07:28:58;;;;;;;7.07;3.90;;;;;;;;;;7021163;28;20044;-86
2021/06/17 07:32:19;;;;;;;4.22;3.67;;;;;;;;;;7023352;28;20122;-87
2021/06/17 07:35:39;;;;;;;5.85;3.67;;;;;;;;;;7023316;28;20044;-85
2021/06/17 07:39:00;;;;;;;11.32;3.30;;;;;;;;;;7022866;28;20056;-85
2021/06/17 07:42:20;;;;;;;7.38;3.60;;;;;;;;;;7027053;28;20580;-86
2021/06/17 07:45:41;;;;;;;4.47;3.33;;;;;;;;;;7028082;28;20200;-85
2021/06/17 07:49:01;;;;;;;6.13;3.88;;;;;;;;;;7027973;28;20119;-85
2021/06/17 07:52:22;;;;;;;6.75;4.07;;;;;;;;;;7027931;28;20378;-86
2021/06/17 07:55:44;;;;;;;4.43;3.08;;;;;;;;;;7027991;28;20302;-84
2021/06/17 07:59:05;;;;;;;11.70;3.40;;;;;;;;;;7032236;28;20047;-85
2021/06/17 08:02:26;;;;;;;3.13;2.90;;;;;;;;;;7012747;28;20101;-86
2021/06/17 08:05:47;;;;;;;7.80;3.08;;;;;;;;;;7011859;28;20051;-80
2021/06/17 08:09:07;;;;;;;12.18;5.18;;;;;;;;;;7043032;28;20052;-81
2021/06/17 08:12:30;;;;;;;6.90;4.80;;;;;;;;;;7032679;28;21447;-81
2021/06/17 08:15:50;;;;;;;17.70;5.03;;;;;;;;;;7045246;28;20143;-81
2021/06/17 08:19:11;;;;;;;6.85;4.93;;;;;;;;;;7030574;28;20052;-81
2021/06/17 08:22:31;;;;;;;7.38;4.85;;;;;;;;;;7041235;28;20511;-81
2021/06/17 08:25:52;;;;;;;11.55;4.78;;;;;;;;;;7040109;28;20117;-81
2021/06/17 08:29:12;;;;;;;9.00;4.45;;;;;;;;;;7045651;28;20050;-81
2021/06/17 08:32:33;;;;;;;9.25;4.60;;;;;;;;;;7046112;28;20591;-81
2021/06/17 08:35:53;;;;;;;8.82;4.45;;;;;;;;;;7027093;28;20048;-82
2021/06/17 08:39:14;;;;;;;13.60;5.03;;;;;;;;;;7036256;28;20126;-81
2021/06/17 08:42:34;;;;;;;7.85;4.15;;;;;;;;;;7026567;28;20055;-85
2021/06/17 08:45:55;;;;;;;7.20;4.32;;;;;;;;;;7026645;28;20040;-83
2021/06/17 08:49:16;;;;;;;9.45;4.70;;;;;;;;;;7025878;28;20393;-83
2021/06/17 08:52:40;;;;;;;5.88;4.07;;;;;;;;;;7025884;28;20044;-82
2021/06/17 08:56:00;;;;;;;6.82;4.40;;;;;;;;;;7026583;28;20058;-81
2021/06/17 08:59:35;;;;;;;7.57;4.40;;;;;;;;;;7026208;28;20059;-80
2021/06/17 09:02:56;;;;;;;5.50;4.28;;;;;;;;;;7008584;28;20558;-80
2021/06/17 09:06:23;;;;;;;9.35;4.47;;;;;;;;;;7026508;28;20124;-81
2021/06/17 09:09:46;;;;;;;8.13;4.05;;;;;;;;;;7025876;28;20113;-84
2021/06/17 09:13:08;;;;;;;10.57;4.07;;;;;;;;;;7025601;28;20135;-81
2021/06/17 09:16:28;;;;;;;10.52;4.10;;;;;;;;;;7026120;28;20564;-80
2021/06/17 09:19:50;;;;;;;5.45;3.75;;;;;;;;;;7025735;28;20048;-81
2021/06/17 09:23:18;;;;;;;6.07;4.10;;;;;;;;;;6991342;28;20051;-81
2021/06/17 09:26:40;;;;;;;18.15;4.10;;;;;;;;;;7040296;28;20044;-81
2021/06/17 09:30:09;;;;;;;7.65;4.50;;;;;;;;;;7026218;28;20050;-81
2021/06/17 09:33:40;;;;;;;10.10;4.05;;;;;;;;;;7038293;28;20519;-82
2021/06/17 09:37:00;;;;;;;11.50;3.90;;;;;;;;;;7025758;28;20444;-80
2021/06/17 09:40:51;;;;;;;10.05;4.32;;;;;;;;;;7025428;28;20547;-81
2021/06/17 09:44:35;;;;;;;8.07;3.85;;;;;;;;;;7012641;28;20048;-81
2021/06/17 09:47:56;;;;;;;4.72;3.80;;;;;;;;;;7007838;28;20126;-81
2021/06/17 09:51:40;;;;;;;5.07;3.47;;;;;;;;;;7025893;28;20048;-81
2021/06/17 09:55:01;;;;;;;6.10;4.07;;;;;;;;;;7025159;28;20052;-81
2021/06/17 09:58:38;;;;;;;7.90;4.10;;;;;;;;;;7025460;28;20048;-82
2021/06/17 10:01:58;;;;;;;11.30;4.35;;;;;;;;;;7006985;28;20055;-81
2021/06/17 10:05:23;;;;;;;15.75;4.47;;;;;;;;;;7005975;28;20044;-80
2021/06/17 10:08:44;;;;;;;10.43;4.25;;;;;;;;;;7007165;28;20130;-80
2021/06/17 10:12:05;;;;;;;8.52;4.20;;;;;;;;;;7025037;28;20048;-80
2021/06/17 10:15:26;;;;;;;7.55;4.13;;;;;;;;;;7025018;28;20043;-80
2021/06/17 10:18:46;;;;;;;8.20;4.35;;;;;;;;;;7024683;28;20135;-80
2021/06/17 10:22:07;;;;;;;5.25;3.80;;;;;;;;;;7024874;28;20063;-80
2021/06/17 10:25:34;;;;;;;7.72;4.25;;;;;;;;;;7039022;28;20043;-80
2021/06/17 10:28:55;;;;;;;6.40;4.38;;;;;;;;;;7024620;28;20056;-81
2021/06/17 10:32:16;;;;;;;6.75;4.45;;;;;;;;;;7024384;28;20052;-79
2021/06/17 10:35:37;;;;;;;8.85;4.57;;;;;;;;;;7021273;28;20074;-80
2021/06/17 10:39:10;;;;;;;7.88;4.53;;;;;;;;;;7024914;28;20056;-80
2021/06/17 10:42:41;;;;;;;11.25;4.47;;;;;;;;;;7050065;28;20055;-81
2021/06/17 10:46:01;;;;;;;10.60;4.40;;;;;;;;;;7024050;28;20469;-80
2021/06/17 10:49:50;;;;;;;9.60;4.20;;;;;;;;;;7024333;28;20485;-81
2021/06/17 10:53:16;;;;;;;9.77;5.72;;;;;;;;;;7023953;28;20063;-85
2021/06/17 10:56:42;;;;;;;16.02;7.90;;;;;;;;;;7038689;28;20052;-86
2021/06/17 11:00:21;;;;;;;17.42;7.57;;;;;;;;;;7045554;28;20047;-86
2021/06/17 11:03:42;;;;;;;11.77;7.22;;;;;;;;;;7029311;28;20040;-85
2021/06/17 11:07:03;;;;;;;21.30;8.80;;;;;;;;;;7032484;28;20416;-86
2021/06/17 11:10:48;;;;;;;13.60;8.05;;;;;;;;;;7029553;28;20091;-86
2021/06/17 11:14:19;;;;;;;14.48;9.20;;;;;;;;;;7028745;28;20481;-86
2021/06/17 11:17:43;;;;;;;19.40;10.05;;;;;;;;;;7007347;28;20136;-86
2021/06/17 11:21:03;;;;;;;12.85;8.40;;;;;;;;;;7029713;28;20044;-80
2021/06/17 11:24:24;;;;;;;15.07;7.45;;;;;;;;;;7048714;28;20081;-80
2021/06/17 11:28:04;;;;;;;11.50;6.77;;;;;;;;;;7050003;28;20055;-80
2021/06/17 11:31:51;;;;;;;12.88;5.85;;;;;;;;;;7033437;28;21001;-80
2021/06/17 11:35:22;;;;;;;7.10;5.78;;;;;;;;;;7030445;28;20054;-80
2021/06/17 11:38:43;;;;;;;9.73;5.60;;;;;;;;;;7052211;28;20055;-80
2021/06/17 11:42:05;;;;;;;13.07;5.43;;;;;;;;;;7037567;28;20557;-80
2021/06/17 11:45:36;;;;;;;8.68;6.07;;;;;;;;;;7028604;28;20052;-80
2021/06/17 11:49:05;;;;;;;8.23;5.82;;;;;;;;;;7033164;28;20454;-80
2021/06/17 11:52:25;;;;;;;7.88;5.30;;;;;;;;;;7039838;28;20048;-79
2021/06/17 11:55:53;;;;;;;6.90;5.22;;;;;;;;;;7010140;28;20047;-80
2021/06/17 11:59:18;;;;;;;15.10;5.95;;;;;;;;;;7034974;28;20409;-80
2021/06/17 12:02:39;;;;;;;9.57;4.93;;;;;;;;;;7048764;28;20138;-81
2021/06/17 12:06:09;;;;;;;15.07;5.72;;;;;;;;;;7040908;28;20055;-80
2021/06/17 12:09:29;;;;;;;11.60;5.82;;;;;;;;;;7044404;28;20051;-80
2021/06/17 12:12:50;;;;;;;11.48;5.60;;;;;;;;;;7035494;28;20138;-80
2021/06/17 12:16:16;;;;;;;9.65;5.57;;;;;;;;;;7042138;28;20105;-83
2021/06/17 12:19:37;;;;;;;7.90;4.88;;;;;;;;;;7041785;28;20050;-83
2021/06/17 12:23:00;;;;;;;10.68;5.55;;;;;;;;;;7055154;28;20138;-80
2021/06/17 12:26:27;;;;;;;8.07;4.80;;;;;;;;;;7040562;28;20056;-81
2021/06/17 12:29:48;;;;;;;14.38;5.13;;;;;;;;;;7014723;28;20454;-82
2021/06/17 12:33:19;;;;;;;10.55;4.93;;;;;;;;;;7019387;28;20484;-80
2021/06/17 12:36:44;;;;;;;8.15;4.75;;;;;;;;;;7026707;28;20044;-80
2021/06/17 12:40:05;;;;;;;8.32;4.95;;;;;;;;;;7007723;28;20051;-81
2021/06/17 12:43:26;;;;;;;6.45;4.53;;;;;;;;;;7026408;28;20047;-81
2021/06/17 12:46:54;;;;;;;27.60;5.72;;;;;;;;;;7026833;28;20084;-80
2021/06/17 12:53:46;;;;;;;6.32;4.78;;;;;;;;;;7028598;28;20080;-79
2021/06/17 12:57:10;;;;;;;8.02;4.75;;;;;;;;;;7026512;28;20052;-80
2021/06/17 13:00:30;;;;;;;7.03;4.65;;;;;;;;;;7022482;28;20131;-81
2021/06/17 13:03:51;;;;;;;12.73;5.05;;;;;;;;;;7008432;28;20047;-80
2021/06/17 13:07:21;;;;;;;7.80;4.70;;;;;;;;;;7026860;28;20056;-80
2021/06/17 13:10:43;;;;;;;9.80;4.93;;;;;;;;;;7026534;28;20070;-82
2021/06/17 13:14:05;;;;;;;8.93;4.65;;;;;;;;;;7026235;28;20414;-82
2021/06/17 13:17:26;;;;;;;16.38;4.70;;;;;;;;;;7026006;28;20090;-79
2021/06/17 13:20:49;;;;;;;9.98;4.60;;;;;;;;;;7025675;28;20051;-79
2021/06/17 13:24:19;;;;;;;10.35;4.40;;;;;;;;;;7031083;28;20489;-79
2021/06/17 13:27:39;;;;;;;11.80;4.03;;;;;;;;;;7053784;22;20208;-80
2021/06/17 13:31:02;;;;;;;13.85;5.00;;;;;;;;;;7040038;28;20065;-81
2021/06/17 13:34:23;;;;;;;7.65;4.35;;;;;;;;;;7035551;28;20100;-81
2021/06/17 13:37:43;;;;;;;5.80;4.07;;;;;;;;;;7053373;28;20114;-81
2021/06/17 13:41:04;;;;;;;6.50;4.40;;;;;;;;;;7048894;28;20047;-81
2021/06/17 13:44:25;;;;;;;6.18;4.70;;;;;;;;;;7035303;28;20043;-79
2021/06/17 13:47:45;;;;;;;8.20;4.57;;;;;;;;;;7049485;28;20138;-80
2021/06/17 13:51:07;;;;;;;15.57;4.88;;;;;;;;;;7032612;28;20098;-81
2021/06/17 13:54:27;;;;;;;10.30;4.85;;;;;;;;;;7009974;28;20237;-79
2021/06/17 13:57:49;;;;;;;16.23;4.93;;;;;;;;;;7037462;28;20105;-80
2021/06/17 14:01:10;;;;;;;11.95;5.30;;;;;;;;;;7046139;28;20078;-80
2021/06/17 14:04:30;;;;;;;6.13;4.60;;;;;;;;;;7045869;28;20044;-79
2021/06/17 14:07:50;;;;;;;11.70;5.60;;;;;;;;;;7045714;28;20079;-81
2021/06/17 14:11:11;;;;;;;8.82;4.32;;;;;;;;;;7040010;28;20040;-79
2021/06/17 14:14:31;;;;;;;10.63;5.22;;;;;;;;;;7016157;28;20040;-79
2021/06/17 14:17:54;;;;;;;6.47;4.80;;;;;;;;;;7046468;28;20095;-79
2021/06/17 14:21:14;;;;;;;10.23;4.90;;;;;;;;;;7028355;28;20116;-80
2021/06/17 14:24:35;;;;;;;7.05;4.53;;;;;;;;;;7038824;28;20036;-79
2021/06/17 14:27:55;;;;;;;10.57;4.90;;;;;;;;;;7046910;28;20043;-79
2021/06/17 14:31:16;;;;;;;10.00;4.65;;;;;;;;;;7052245;28;20132;-79
2021/06/17 14:34:36;;;;;;;5.70;4.53;;;;;;;;;;7050469;28;20049;-79
2021/06/17 14:37:56;;;;;;;8.23;4.85;;;;;;;;;;7045235;28;20052;-79
2021/06/17 14:41:17;;;;;;;12.07;5.10;;;;;;;;;;7012585;28;20048;-79
2021/06/17 14:44:38;;;;;;;6.80;4.68;;;;;;;;;;7051772;28;20043;-79
2021/06/17 14:47:59;;;;;;;12.00;4.85;;;;;;;;;;7052569;28;20050;-79
2021/06/17 14:51:22;;;;;;;14.13;4.63;;;;;;;;;;7051202;28;20063;-79
2021/06/17 14:54:43;;;;;;;11.90;4.60;;;;;;;;;;7052223;28;20506;-78
2021/06/17 14:58:04;;;;;;;9.05;4.72;;;;;;;;;;7051419;28;20036;-85
2021/06/17 15:01:24;;;;;;;8.55;4.68;;;;;;;;;;7053404;28;20126;-86
2021/06/17 15:04:45;;;;;;;7.38;5.03;;;;;;;;;;7051980;28;20043;-85
2021/06/17 15:08:06;;;;;;;9.43;4.20;;;;;;;;;;7051980;28;20378;-85
2021/06/17 15:11:27;;;;;;;9.18;4.43;;;;;;;;;;7051394;28;20052;-88
2021/06/17 15:14:48;;;;;;;10.40;4.53;;;;;;;;;;7051847;28;20083;-81
2021/06/17 15:18:11;;;;;;;15.40;4.65;;;;;;;;;;7051531;28;20048;-81
2021/06/17 15:21:32;;;;;;;14.20;4.38;;;;;;;;;;7051900;28;20059;-81
2021/06/17 15:24:53;;;;;;;8.27;4.13;;;;;;;;;;7040005;28;20051;-82
2021/06/17 15:28:14;;;;;;;14.35;4.53;;;;;;;;;;7044505;28;20055;-81
2021/06/17 15:31:37;;;;;;;13.10;4.30;;;;;;;;;;7037087;28;20047;-81
2021/06/17 15:34:58;;;;;;;6.05;4.05;;;;;;;;;;7033442;28;20126;-79
2021/06/17 15:38:18;;;;;;;8.27;3.97;;;;;;;;;;7051460;28;20603;-80
2021/06/17 15:41:39;;;;;;;9.93;3.97;;;;;;;;;;7051276;28;20079;-81
2021/06/17 15:44:59;;;;;;;11.02;4.30;;;;;;;;;;7050977;28;20202;-81
2021/06/17 15:48:20;;;;;;;7.70;4.10;;;;;;;;;;7051048;28;20040;-80
2021/06/17 15:51:40;;;;;;;12.07;4.15;;;;;;;;;;7043373;28;20069;-80
2021/06/17 15:55:01;;;;;;;9.40;3.95;;;;;;;;;;7044888;28;20104;-82
2021/06/17 15:58:21;;;;;;;5.40;4.05;;;;;;;;;;7050993;28;20069;-82
2021/06/17 16:01:42;;;;;;;7.40;3.85;;;;;;;;;;7052319;28;20096;-81
2021/06/17 16:05:04;;;;;;;8.43;3.72;;;;;;;;;;7055873;28;20404;-82
2021/06/17 16:08:24;;;;;;;14.25;3.95;;;;;;;;;;7049924;28;20104;-81
2021/06/17 16:11:45;;;;;;;8.05;3.97;;;;;;;;;;7046850;28;20043;-81
2021/06/17 16:15:06;;;;;;;7.40;4.03;;;;;;;;;;7055517;28;20401;-82
2021/06/17 16:18:26;;;;;;;8.25;3.92;;;;;;;;;;7055300;28;20396;-81
2021/06/17 16:21:47;;;;;;;5.20;3.40;;;;;;;;;;7055018;28;20489;-81
2021/06/17 16:25:08;;;;;;;8.55;3.50;;;;;;;;;;7042058;28;20101;-80
2021/06/17 16:28:28;;;;;;;7.32;3.47;;;;;;;;;;7054371;28;20055;-80
2021/06/17 16:31:48;;;;;;;4.55;3.35;;;;;;;;;;7055278;28;20062;-79
2021/06/17 16:35:10;;;;;;;6.18;3.70;;;;;;;;;;7042949;28;20044;-82
2021/06/17 16:38:31;;;;;;;7.65;3.30;;;;;;;;;;7052073;28;20138;-82
2021/06/17 16:41:52;;;;;;;5.40;3.65;;;;;;;;;;7054804;28;20047;-82
2021/06/17 16:45:13;;;;;;;4.47;3.33;;;;;;;;;;7054911;28;20042;-82
2021/06/17 16:48:33;;;;;;;7.28;3.67;;;;;;;;;;7054705;28;20504;-81
2021/06/17 16:51:54;;;;;;;7.35;3.63;;;;;;;;;;7054761;28;20082;-83
2021/06/17 16:55:15;;;;;;;5.57;3.13;;;;;;;;;;7054819;28;20054;-81
2021/06/17 16:58:36;;;;;;;6.47;3.50;;;;;;;;;;7053951;28;20417;-81
2021/06/17 17:01:56;;;;;;;12.73;3.60;;;;;;;;;;7046140;28;20521;-82
2021/06/17 17:05:17;;;;;;;6.75;3.50;;;;;;;;;;7048436;28;20040;-80
2021/06/17 17:08:37;;;;;;;7.15;3.10;;;;;;;;;;7054140;28;20393;-81
2021/06/17 17:11:58;;;;;;;8.98;3.22;;;;;;;;;;7054454;28;20501;-80
2021/06/17 17:15:19;;;;;;;5.93;3.55;;;;;;;;;;7053697;28;20508;-80
2021/06/17 17:18:40;;;;;;;5.53;3.10;;;;;;;;;;7030486;28;20040;-81
2021/06/17 17:22:00;;;;;;;4.78;3.42;;;;;;;;;;7054089;28;20056;-81
2021/06/17 17:25:21;;;;;;;4.30;2.80;;;;;;;;;;7025165;28;20045;-81
2021/06/17 17:28:41;;;;;;;7.47;3.30;;;;;;;;;;7053917;28;20075;-81
2021/06/17 17:32:05;;;;;;;5.38;3.58;;;;;;;;;;7039347;28;20494;-81
2021/06/17 17:35:26;;;;;;;3.40;2.90;;;;;;;;;;7053953;28;20094;-81
2021/06/17 17:38:47;;;;;;;5.35;3.00;;;;;;;;;;7053621;28;20047;-81
2021/06/17 17:42:07;;;;;;;6.93;3.47;;;;;;;;;;7053393;28;20404;-80
2021/06/17 17:45:28;;;;;;;6.70;3.33;;;;;;;;;;7053283;28;20079;-81
2021/06/17 17:48:49;;;;;;;5.55;3.60;;;;;;;;;;7053006;28;20071;-82
2021/06/17 17:52:09;;;;;;;4.68;3.47;;;;;;;;;;7049859;28;20130;-81
2021/06/17 17:55:30;;;;;;;7.47;3.72;;;;;;;;;;7018621;28;20146;-81
2021/06/17 17:58:50;;;;;;;9.98;4.13;;;;;;;;;;7049843;28;20051;-81
2021/06/17 18:02:11;;;;;;;6.43;3.53;;;;;;;;;;7053021;28;20052;-81
2021/06/17 18:05:34;;;;;;;12.45;3.85;;;;;;;;;;7039557;28;20044;-82
2021/06/17 18:08:54;;;;;;;6.78;3.25;;;;;;;;;;7030139;28;20042;-81
2021/06/17 18:12:14;;;;;;;12.10;3.60;;;;;;;;;;7045713;28;20056;-81
2021/06/17 18:15:40;;;;;;;5.28;3.00;;;;;;;;;;7015296;28;20358;-81
2021/06/17 18:19:01;;;;;;;4.93;2.90;;;;;;;;;;7034026;28;20043;-81
2021/06/17 18:22:22;;;;;;;9.57;3.65;;;;;;;;;;7044090;28;20409;-82
2021/06/17 18:25:42;;;;;;;9.70;3.50;;;;;;;;;;7034369;28;20043;-81
2021/06/17 18:29:03;;;;;;;8.52;3.25;;;;;;;;;;7035082;28;21023;-81
2021/06/17 18:32:24;;;;;;;7.15;3.80;;;;;;;;;;7039230;28;20499;-81
2021/06/17 18:35:47;;;;;;;5.70;3.00;;;;;;;;;;7050010;28;20059;-80
2021/06/17 18:39:07;;;;;;;20.65;3.47;;;;;;;;;;7041286;28;20052;-80
2021/06/17 18:42:28;;;;;;;8.75;3.28;;;;;;;;;;7024201;28;20048;-82
2021/06/17 18:45:48;;;;;;;9.07;3.90;;;;;;;;;;7013869;28;20047;-82
2021/06/17 18:49:09;;;;;;;23.13;4.63;;;;;;;;;;7024505;28;20375;-82
2021/06/17 18:52:30;;;;;;;13.10;4.25;;;;;;;;;;7021288;28;20052;-81
2021/06/17 18:55:50;;;;;;;12.70;4.43;;;;;;;;;;7013212;28;20072;-81
2021/06/17 18:59:11;;;;;;;8.95;4.07;;;;;;;;;;7012648;28;20043;-82
2021/06/17 19:02:31;;;;;;;12.77;3.42;;;;;;;;;;6992257;28;20044;-82
2021/06/17 19:05:52;;;;;;;8.60;3.30;;;;;;;;;;7014550;28;20298;-83
2021/06/17 19:09:13;;;;;;;5.95;3.45;;;;;;;;;;7010326;28;20406;-84
2021/06/17 19:12:33;;;;;;;14.57;3.88;;;;;;;;;;7014833;28;20405;-83
2021/06/17 19:15:58;;;;;;;9.23;3.45;;;;;;;;;;7020994;28;20079;-84
2021/06/17 19:19:19;;;;;;;6.00;3.58;;;;;;;;;;7000762;28;20056;-83
2021/06/17 19:22:42;;;;;;;8.02;3.38;;;;;;;;;;6997641;28;20040;-82
2021/06/17 19:26:06;;;;;;;9.15;4.13;;;;;;;;;;7009360;28;20071;-82
2021/06/17 19:29:26;;;;;;;5.72;3.67;;;;;;;;;;7012798;28;20055;-84
2021/06/17 19:32:48;;;;;;;16.05;3.90;;;;;;;;;;7021801;28;20079;-83
2021/06/17 19:36:10;;;;;;;17.20;3.65;;;;;;;;;;7025412;28;20040;-82
2021/06/17 19:39:32;;;;;;;11.18;3.35;;;;;;;;;;7007226;28;20044;-82
2021/06/17 19:42:53;;;;;;;10.82;3.20;;;;;;;;;;7027641;28;20048;-82
2021/06/17 19:46:15;;;;;;;13.07;3.63;;;;;;;;;;7027242;28;20416;-82
2021/06/17 19:49:36;;;;;;;9.10;3.50;;;;;;;;;;7023314;28;20041;-83
2021/06/17 19:52:59;;;;;;;8.90;3.28;;;;;;;;;;7020910;28;20055;-83
2021/06/17 19:56:25;;;;;;;9.50;3.40;;;;;;;;;;7026175;28;20412;-84
2021/06/17 19:59:45;;;;;;;8.18;4.07;;;;;;;;;;7027126;28;20054;-83
2021/06/17 20:03:06;;;;;;;11.40;3.97;;;;;;;;;;7015347;28;20044;-82
2021/06/17 20:06:27;;;;;;;13.18;3.90;;;;;;;;;;7025914;28;20048;-83
2021/06/17 20:09:47;;;;;;;7.60;3.78;;;;;;;;;;7025600;28;20131;-88
2021/06/17 20:13:09;;;;;;;6.22;3.83;;;;;;;;;;7025450;28;20048;-84